Time;durP1;ratioP1;P1;durP2;ratioP2;P2;SDS_P1;SDS_P2;PMS_P1;PMS_P2;Temp;Humidity;BMP_temperature;BMP_pressure;BME280_temperature;BME280_humidity;BME280_pressure;Samples;Min_cycle;Max_cycle;Signal;HPM_P1;HPM_P2
2022/01/31 00:02:24;;;;;;;36.57;8.83;;;;;;;;;;4961638;28;20924;-75
2022/01/31 00:04:51;;;;;;;46.10;8.73;;;;;;;;;;4960713;28;21055;-75
2022/01/31 00:07:19;;;;;;;42.23;9.27;;;;;;;;;;4964335;28;20210;-75
2022/01/31 00:09:47;;;;;;;34.23;9.00;;;;;;;;;;4963615;28;20298;-75
2022/01/31 00:12:15;;;;;;;33.67;8.13;;;;;;;;;;4964505;28;20453;-76
2022/01/31 00:14:44;;;;;;;38.93;9.63;;;;;;;;;;4964269;28;20225;-75
2022/01/31 00:17:13;;;;;;;36.63;8.50;;;;;;;;;;4966845;28;20210;-75
2022/01/31 00:19:40;;;;;;;46.60;9.67;;;;;;;;;;4966176;28;20472;-75
2022/01/31 00:22:08;;;;;;;33.27;9.00;;;;;;;;;;4965940;28;20207;-75
2022/01/31 00:24:36;;;;;;;36.80;9.37;;;;;;;;;;4965491;28;20487;-75
2022/01/31 00:27:05;;;;;;;25.23;7.50;;;;;;;;;;4964231;28;20567;-76
2022/01/31 00:29:32;;;;;;;37.90;9.07;;;;;;;;;;4964449;28;20226;-76
2022/01/31 00:31:59;;;;;;;31.77;8.47;;;;;;;;;;4966503;28;20665;-75
2022/01/31 00:34:27;;;;;;;26.57;7.73;;;;;;;;;;4962950;28;20492;-75
2022/01/31 00:36:54;;;;;;;28.63;7.93;;;;;;;;;;4964985;28;20637;-75
2022/01/31 00:39:22;;;;;;;25.60;7.13;;;;;;;;;;4962966;28;20681;-75
2022/01/31 00:41:49;;;;;;;36.07;8.63;;;;;;;;;;4964754;28;20296;-75
2022/01/31 00:44:22;;;;;;;24.13;6.60;;;;;;;;;;4966025;28;20257;-75
2022/01/31 00:46:57;;;;;;;20.00;5.33;;;;;;;;;;4964676;28;20847;-75
2022/01/31 00:49:34;;;;;;;18.97;4.77;;;;;;;;;;4964630;28;20461;-75
2022/01/31 00:52:02;;;;;;;29.43;5.23;;;;;;;;;;4964563;28;20292;-74
2022/01/31 00:54:29;;;;;;;17.53;3.87;;;;;;;;;;4964880;28;20232;-74
2022/01/31 00:56:56;;;;;;;16.63;3.57;;;;;;;;;;4963983;28;20206;-75
2022/01/31 00:59:25;;;;;;;12.70;3.97;;;;;;;;;;4963950;28;20206;-75
2022/01/31 01:01:52;;;;;;;13.30;3.67;;;;;;;;;;4963492;28;20210;-75
2022/01/31 01:04:19;;;;;;;20.20;3.30;;;;;;;;;;4967104;28;20488;-74
2022/01/31 01:06:46;;;;;;;16.33;3.97;;;;;;;;;;4964148;28;20283;-74
2022/01/31 01:09:13;;;;;;;16.50;3.30;;;;;;;;;;4962775;28;20572;-74
2022/01/31 01:11:40;;;;;;;11.77;2.93;;;;;;;;;;4963295;28;20214;-74
2022/01/31 01:14:08;;;;;;;11.97;3.10;;;;;;;;;;4961402;28;20273;-75
2022/01/31 01:16:36;;;;;;;6.07;2.57;;;;;;;;;;4963420;28;20285;-75
2022/01/31 01:19:03;;;;;;;17.37;3.03;;;;;;;;;;4965746;28;20221;-75
2022/01/31 01:21:31;;;;;;;14.13;3.20;;;;;;;;;;4964929;28;20570;-76
2022/01/31 01:23:58;;;;;;;10.83;3.67;;;;;;;;;;4961541;28;20740;-75
2022/01/31 01:26:25;;;;;;;19.73;3.10;;;;;;;;;;4961261;28;20317;-75
2022/01/31 01:28:52;;;;;;;12.57;3.20;;;;;;;;;;4965750;28;20285;-75
2022/01/31 01:31:19;;;;;;;9.80;2.87;;;;;;;;;;4964308;28;20205;-75
2022/01/31 01:33:48;;;;;;;21.97;3.20;;;;;;;;;;4965552;28;20227;-75
2022/01/31 01:36:15;;;;;;;12.53;2.80;;;;;;;;;;4962781;28;20644;-75
2022/01/31 01:38:43;;;;;;;10.60;3.33;;;;;;;;;;4963037;28;20582;-75
2022/01/31 01:41:10;;;;;;;14.60;2.77;;;;;;;;;;4963352;28;20572;-76
2022/01/31 01:43:38;;;;;;;12.10;3.10;;;;;;;;;;4962214;28;20605;-76
2022/01/31 01:46:06;;;;;;;20.73;3.80;;;;;;;;;;4964750;28;20652;-76
2022/01/31 01:48:33;;;;;;;22.97;3.70;;;;;;;;;;4963227;28;20217;-76
2022/01/31 01:51:02;;;;;;;17.47;3.23;;;;;;;;;;4961645;28;20631;-76
2022/01/31 01:53:29;;;;;;;16.80;2.90;;;;;;;;;;4960496;28;20221;-75
2022/01/31 01:55:57;;;;;;;14.03;3.37;;;;;;;;;;4966691;28;20612;-75
2022/01/31 01:58:24;;;;;;;9.10;2.57;;;;;;;;;;4964093;28;20209;-75
2022/01/31 02:00:58;;;;;;;15.80;3.40;;;;;;;;;;4963303;28;20221;-75
2022/01/31 02:03:26;;;;;;;15.33;3.20;;;;;;;;;;4962502;28;20683;-75
2022/01/31 02:05:53;;;;;;;15.33;3.47;;;;;;;;;;4958253;28;20236;-75
2022/01/31 02:08:22;;;;;;;11.47;2.90;;;;;;;;;;4964308;28;20201;-75
2022/01/31 02:10:49;;;;;;;14.20;3.13;;;;;;;;;;4966084;28;20289;-74
2022/01/31 02:13:17;;;;;;;10.23;3.00;;;;;;;;;;4960444;28;20249;-74
2022/01/31 02:15:45;;;;;;;12.20;3.43;;;;;;;;;;4963835;28;20253;-75
2022/01/31 02:18:13;;;;;;;15.30;3.73;;;;;;;;;;4966868;28;20237;-74
2022/01/31 02:20:42;;;;;;;16.37;3.33;;;;;;;;;;4963537;28;20242;-75
2022/01/31 02:23:10;;;;;;;12.23;2.80;;;;;;;;;;4962834;28;20229;-74
2022/01/31 02:25:51;;;;;;;11.30;3.73;;;;;;;;;;4963039;28;20206;-74
2022/01/31 02:28:19;;;;;;;17.10;3.10;;;;;;;;;;4960104;28;20320;-74
2022/01/31 02:30:46;;;;;;;13.03;2.83;;;;;;;;;;4962462;28;20209;-74
2022/01/31 02:33:13;;;;;;;22.97;3.60;;;;;;;;;;4960339;28;20313;-74
2022/01/31 02:35:40;;;;;;;11.20;2.80;;;;;;;;;;4963150;28;20209;-75
2022/01/31 02:38:09;;;;;;;22.50;3.20;;;;;;;;;;4966110;28;20205;-75
2022/01/31 02:40:36;;;;;;;13.43;3.17;;;;;;;;;;4959812;28;20273;-75
2022/01/31 02:43:03;;;;;;;14.73;3.03;;;;;;;;;;4962314;28;20316;-75
2022/01/31 02:45:30;;;;;;;13.93;3.47;;;;;;;;;;4960423;28;20579;-75
2022/01/31 02:48:00;;;;;;;12.80;2.90;;;;;;;;;;4961796;28;20234;-75
2022/01/31 02:50:28;;;;;;;14.90;2.93;;;;;;;;;;4958079;28;20202;-75
2022/01/31 02:53:10;;;;;;;14.83;3.07;;;;;;;;;;4961170;28;20257;-74
2022/01/31 02:55:38;;;;;;;11.37;3.27;;;;;;;;;;4959592;28;20305;-74
2022/01/31 02:58:05;;;;;;;9.90;2.63;;;;;;;;;;4957735;28;20599;-74
2022/01/31 03:00:32;;;;;;;11.80;2.73;;;;;;;;;;4962766;28;20205;-74
2022/01/31 03:02:59;;;;;;;19.97;3.40;;;;;;;;;;4958342;28;20210;-74
2022/01/31 03:05:27;;;;;;;18.30;3.40;;;;;;;;;;4959901;28;20696;-74
2022/01/31 03:07:54;;;;;;;12.93;2.90;;;;;;;;;;4962392;28;20244;-74
2022/01/31 03:10:21;;;;;;;12.27;3.07;;;;;;;;;;4960686;28;20217;-74
2022/01/31 03:12:50;;;;;;;9.87;3.20;;;;;;;;;;4962262;28;20313;-74
2022/01/31 03:15:17;;;;;;;8.90;2.87;;;;;;;;;;4961978;28;20226;-74
2022/01/31 03:17:47;;;;;;;16.10;3.43;;;;;;;;;;4958520;28;20210;-74
2022/01/31 03:20:15;;;;;;;14.83;2.80;;;;;;;;;;4960454;28;20575;-74
2022/01/31 03:22:42;;;;;;;11.37;2.90;;;;;;;;;;4964402;28;20374;-74
2022/01/31 03:25:09;;;;;;;12.77;2.67;;;;;;;;;;4957746;28;20241;-74
2022/01/31 03:27:37;;;;;;;11.73;2.93;;;;;;;;;;4961562;28;20320;-74
2022/01/31 03:30:06;;;;;;;15.93;3.83;;;;;;;;;;4960778;28;20712;-74
2022/01/31 03:32:33;;;;;;;10.03;3.03;;;;;;;;;;4957666;28;20289;-74
2022/01/31 03:35:01;;;;;;;11.43;2.73;;;;;;;;;;4961737;28;20405;-74
2022/01/31 03:37:28;;;;;;;11.47;2.83;;;;;;;;;;4963913;28;20206;-74
2022/01/31 03:39:55;;;;;;;11.07;2.73;;;;;;;;;;4960300;28;20289;-74
2022/01/31 03:42:22;;;;;;;15.40;3.40;;;;;;;;;;4961914;28;20688;-74
2022/01/31 03:44:50;;;;;;;17.60;3.13;;;;;;;;;;4960847;28;20226;-74
2022/01/31 03:47:21;;;;;;;15.80;3.10;;;;;;;;;;4961571;28;20646;-74
2022/01/31 03:49:48;;;;;;;14.00;3.40;;;;;;;;;;4964143;28;20211;-74
2022/01/31 03:52:15;;;;;;;13.97;2.97;;;;;;;;;;4965244;28;20221;-74
2022/01/31 03:54:42;;;;;;;13.93;3.17;;;;;;;;;;4960395;28;20230;-74
2022/01/31 03:57:09;;;;;;;16.50;3.60;;;;;;;;;;4965160;28;20202;-74
2022/01/31 03:59:36;;;;;;;10.00;2.70;;;;;;;;;;4964982;28;20305;-74
2022/01/31 04:02:05;;;;;;;10.60;3.23;;;;;;;;;;4961932;28;20291;-74
2022/01/31 04:04:33;;;;;;;18.73;3.27;;;;;;;;;;4966286;28;20709;-74
2022/01/31 04:07:01;;;;;;;12.37;3.00;;;;;;;;;;4961281;28;20260;-74
2022/01/31 04:09:28;;;;;;;15.63;3.73;;;;;;;;;;4960236;28;20766;-74
2022/01/31 04:11:55;;;;;;;10.07;3.00;;;;;;;;;;4964726;28;20213;-74
2022/01/31 04:14:25;;;;;;;14.50;3.33;;;;;;;;;;4961923;28;20225;-74
2022/01/31 04:16:53;;;;;;;12.53;3.23;;;;;;;;;;4964166;28;20268;-73
2022/01/31 04:19:20;;;;;;;14.70;3.23;;;;;;;;;;4965253;28;20515;-74
2022/01/31 04:21:49;;;;;;;10.30;3.17;;;;;;;;;;4962091;28;20201;-74
2022/01/31 04:24:21;;;;;;;17.87;3.73;;;;;;;;;;4962230;28;20229;-74
2022/01/31 04:26:57;;;;;;;10.03;3.27;;;;;;;;;;4962496;28;20228;-75
2022/01/31 04:29:27;;;;;;;9.73;3.33;;;;;;;;;;4966411;28;20201;-74
2022/01/31 04:31:54;;;;;;;16.37;3.63;;;;;;;;;;4962652;28;20276;-74
2022/01/31 04:34:21;;;;;;;12.30;4.07;;;;;;;;;;4965108;28;20229;-74
2022/01/31 04:36:50;;;;;;;15.53;3.97;;;;;;;;;;4963617;28;20198;-74
2022/01/31 04:39:19;;;;;;;10.47;3.23;;;;;;;;;;4960763;28;20695;-75
2022/01/31 04:41:46;;;;;;;21.80;4.63;;;;;;;;;;4964335;28;20657;-74
2022/01/31 04:44:13;;;;;;;9.83;3.53;;;;;;;;;;4963028;28;20232;-74
2022/01/31 04:46:41;;;;;;;13.50;4.10;;;;;;;;;;4963328;28;20262;-75
2022/01/31 04:49:09;;;;;;;19.60;4.10;;;;;;;;;;4963605;28;20206;-74
2022/01/31 04:51:36;;;;;;;13.67;3.87;;;;;;;;;;4960914;28;20616;-74
2022/01/31 04:54:04;;;;;;;49.30;13.77;;;;;;;;;;4963084;28;20645;-74
2022/01/31 04:56:32;;;;;;;49.53;12.50;;;;;;;;;;4964589;28;20219;-74
2022/01/31 04:58:59;;;;;;;27.77;8.80;;;;;;;;;;4961692;28;20285;-75
2022/01/31 05:01:27;;;;;;;27.70;7.80;;;;;;;;;;4962720;28;20208;-75
2022/01/31 05:03:54;;;;;;;20.63;6.37;;;;;;;;;;4959812;28;20230;-74
2022/01/31 05:06:28;;;;;;;19.97;4.83;;;;;;;;;;4960501;28;20206;-75
2022/01/31 05:08:55;;;;;;;15.47;4.73;;;;;;;;;;4963539;28;20295;-75
2022/01/31 05:11:23;;;;;;;20.60;5.17;;;;;;;;;;4961537;28;20221;-75
2022/01/31 05:13:51;;;;;;;24.10;5.70;;;;;;;;;;4963020;28;20314;-74
2022/01/31 05:16:18;;;;;;;14.73;5.33;;;;;;;;;;4962283;28;20205;-75
2022/01/31 05:18:45;;;;;;;14.07;4.57;;;;;;;;;;4962248;28;20261;-74
2022/01/31 05:21:13;;;;;;;19.90;4.53;;;;;;;;;;4958675;28;20639;-74
2022/01/31 05:23:40;;;;;;;9.77;4.10;;;;;;;;;;4960642;28;20232;-75
2022/01/31 05:26:07;;;;;;;17.90;6.07;;;;;;;;;;4961094;28;20687;-74
2022/01/31 05:28:36;;;;;;;15.33;4.93;;;;;;;;;;4964810;28;20218;-74
2022/01/31 05:31:03;;;;;;;18.20;5.10;;;;;;;;;;4963882;28;20210;-73
2022/01/31 05:33:30;;;;;;;7.73;3.03;;;;;;;;;;4963813;28;20328;-75
2022/01/31 05:35:58;;;;;;;7.43;2.50;;;;;;;;;;4959272;28;20220;-74
2022/01/31 05:38:25;;;;;;;13.10;4.23;;;;;;;;;;4963303;28;20210;-75
2022/01/31 05:40:53;;;;;;;10.97;3.83;;;;;;;;;;4958378;28;20284;-74
2022/01/31 05:43:20;;;;;;;9.67;4.17;;;;;;;;;;4962123;28;20254;-74
2022/01/31 05:45:49;;;;;;;3.97;1.60;;;;;;;;;;4964866;28;20210;-74
2022/01/31 05:48:18;;;;;;;3.80;1.30;;;;;;;;;;4961765;28;20229;-76
2022/01/31 05:50:46;;;;;;;2.03;0.90;;;;;;;;;;4968906;28;20210;-74
2022/01/31 05:53:14;;;;;;;3.40;0.90;;;;;;;;;;4957063;28;20285;-74
2022/01/31 05:55:41;;;;;;;0.90;0.60;;;;;;;;;;4963193;28;20210;-74
2022/01/31 05:58:10;;;;;;;1.97;0.70;;;;;;;;;;4962609;28;20570;-74
2022/01/31 06:00:37;;;;;;;1.40;0.50;;;;;;;;;;4959306;28;20209;-74
2022/01/31 06:03:06;;;;;;;0.77;0.40;;;;;;;;;;4961824;28;20210;-75
2022/01/31 06:05:33;;;;;;;0.80;0.40;;;;;;;;;;4960268;28;20680;-74
2022/01/31 06:08:00;;;;;;;1.83;0.77;;;;;;;;;;4960184;28;20233;-75
2022/01/31 06:10:27;;;;;;;10.93;2.47;;;;;;;;;;4960535;28;20210;-77
2022/01/31 06:12:56;;;;;;;2.40;0.80;;;;;;;;;;4957317;28;20272;-74
2022/01/31 06:15:23;;;;;;;1.73;0.80;;;;;;;;;;4958387;28;20687;-75
2022/01/31 06:17:50;;;;;;;4.87;1.27;;;;;;;;;;4956959;28;20213;-74
2022/01/31 06:20:19;;;;;;;4.20;1.20;;;;;;;;;;4959384;28;20320;-74
2022/01/31 06:22:50;;;;;;;4.60;1.63;;;;;;;;;;4961353;28;20213;-73
2022/01/31 06:25:17;;;;;;;3.60;1.50;;;;;;;;;;4958753;28;20214;-75
2022/01/31 06:27:45;;;;;;;3.80;1.80;;;;;;;;;;4961485;28;20645;-75
2022/01/31 06:30:12;;;;;;;5.00;1.97;;;;;;;;;;4962918;28;20198;-74
2022/01/31 06:32:40;;;;;;;5.27;2.10;;;;;;;;;;4955409;28;20640;-75
2022/01/31 06:35:08;;;;;;;2.60;2.10;;;;;;;;;;4960959;28;20304;-75
2022/01/31 06:37:37;;;;;;;7.53;2.30;;;;;;;;;;4962580;28;20198;-75
2022/01/31 06:40:05;;;;;;;4.23;2.50;;;;;;;;;;4957570;28;20220;-75
2022/01/31 06:42:32;;;;;;;6.83;2.43;;;;;;;;;;4964708;28;20240;-75
2022/01/31 06:44:59;;;;;;;5.57;2.60;;;;;;;;;;4966414;28;20325;-75
2022/01/31 06:47:27;;;;;;;6.83;3.23;;;;;;;;;;4960314;28;20232;-75
2022/01/31 06:49:54;;;;;;;5.90;3.30;;;;;;;;;;4962403;28;20213;-75
2022/01/31 06:52:22;;;;;;;5.40;2.93;;;;;;;;;;4960625;28;20297;-75
2022/01/31 06:54:51;;;;;;;6.67;3.17;;;;;;;;;;4961162;28;20233;-75
2022/01/31 06:57:19;;;;;;;8.03;3.07;;;;;;;;;;4962110;28;20205;-75
2022/01/31 06:59:46;;;;;;;7.50;3.57;;;;;;;;;;4959391;28;20701;-75
2022/01/31 07:02:13;;;;;;;7.47;3.20;;;;;;;;;;4960534;28;20237;-75
2022/01/31 07:04:41;;;;;;;5.83;3.33;;;;;;;;;;4956920;28;20273;-75
2022/01/31 07:07:08;;;;;;;10.07;3.60;;;;;;;;;;4962255;28;20425;-75
2022/01/31 07:09:35;;;;;;;7.30;3.20;;;;;;;;;;4961364;28;20675;-75
2022/01/31 07:12:09;;;;;;;9.63;4.07;;;;;;;;;;4962480;28;20218;-74
2022/01/31 07:14:36;;;;;;;8.37;4.43;;;;;;;;;;4962571;28;20236;-75
2022/01/31 07:17:05;;;;;;;13.40;4.97;;;;;;;;;;4955410;28;20214;-75
2022/01/31 07:19:34;;;;;;;13.40;5.50;;;;;;;;;;4963469;28;20305;-75
2022/01/31 07:22:04;;;;;;;14.57;6.17;;;;;;;;;;4963869;28;20249;-75
2022/01/31 07:24:43;;;;;;;16.80;6.00;;;;;;;;;;4964685;28;20709;-75
2022/01/31 07:27:12;;;;;;;16.23;5.50;;;;;;;;;;4966923;28;20212;-74
2022/01/31 07:29:39;;;;;;;10.60;5.00;;;;;;;;;;4964805;28;20312;-75
2022/01/31 07:32:09;;;;;;;9.93;4.97;;;;;;;;;;4966121;28;20229;-75
2022/01/31 07:34:36;;;;;;;9.67;5.03;;;;;;;;;;4963087;28;20260;-75
2022/01/31 07:37:03;;;;;;;8.53;4.60;;;;;;;;;;4961038;28;20228;-75
2022/01/31 07:39:31;;;;;;;10.43;5.10;;;;;;;;;;4961852;28;20205;-75
2022/01/31 07:41:58;;;;;;;20.60;5.70;;;;;;;;;;4965579;28;20229;-75
2022/01/31 07:44:26;;;;;;;19.57;5.80;;;;;;;;;;4966700;28;20300;-75
2022/01/31 07:46:54;;;;;;;22.77;6.13;;;;;;;;;;4961899;28;20294;-75
2022/01/31 07:49:22;;;;;;;20.63;6.40;;;;;;;;;;4964406;28;20234;-75
2022/01/31 07:51:49;;;;;;;15.17;5.60;;;;;;;;;;4964286;28;20216;-75
2022/01/31 07:54:16;;;;;;;14.90;4.27;;;;;;;;;;4964618;28;20230;-75
2022/01/31 07:56:44;;;;;;;15.00;4.60;;;;;;;;;;4963019;28;20210;-75
2022/01/31 07:59:11;;;;;;;14.60;4.77;;;;;;;;;;4965445;28;20210;-75
2022/01/31 08:01:40;;;;;;;13.47;4.80;;;;;;;;;;4968658;28;20221;-76
2022/01/31 08:04:07;;;;;;;15.23;4.57;;;;;;;;;;4969680;28;20260;-75
2022/01/31 08:06:35;;;;;;;12.20;4.50;;;;;;;;;;4962524;28;20589;-75
2022/01/31 08:09:02;;;;;;;18.00;4.90;;;;;;;;;;4966340;28;20261;-75
2022/01/31 08:11:32;;;;;;;15.07;4.57;;;;;;;;;;4962708;28;20429;-75
2022/01/31 08:14:05;;;;;;;17.70;4.60;;;;;;;;;;4963013;28;20309;-75
2022/01/31 08:16:32;;;;;;;17.83;4.77;;;;;;;;;;4966421;28;20213;-75
2022/01/31 08:19:00;;;;;;;12.73;4.60;;;;;;;;;;4963135;28;20221;-75
2022/01/31 08:21:27;;;;;;;8.53;3.80;;;;;;;;;;4960326;28;20239;-74
2022/01/31 08:23:55;;;;;;;10.33;4.03;;;;;;;;;;4963158;28;20236;-74
2022/01/31 08:26:22;;;;;;;7.80;3.30;;;;;;;;;;4964504;28;20597;-74
2022/01/31 08:28:54;;;;;;;6.23;3.07;;;;;;;;;;4962365;28;20269;-75
2022/01/31 08:31:24;;;;;;;7.93;3.00;;;;;;;;;;4961779;28;20217;-74
2022/01/31 08:34:05;;;;;;;9.93;3.20;;;;;;;;;;4962393;28;20320;-74
2022/01/31 08:36:35;;;;;;;5.93;2.23;;;;;;;;;;4963384;28;20221;-75
2022/01/31 08:39:03;;;;;;;3.13;1.53;;;;;;;;;;4962830;28;20301;-74
2022/01/31 08:41:30;;;;;;;5.87;1.93;;;;;;;;;;4965361;28;20256;-74
2022/01/31 08:43:57;;;;;;;3.17;1.80;;;;;;;;;;4963201;28;20751;-75
2022/01/31 08:46:24;;;;;;;7.47;1.70;;;;;;;;;;4961593;28;20202;-75
2022/01/31 08:48:51;;;;;;;6.43;1.40;;;;;;;;;;4964691;28;20234;-75
2022/01/31 08:51:18;;;;;;;3.00;1.10;;;;;;;;;;4964641;28;20212;-75
2022/01/31 08:53:48;;;;;;;3.00;1.40;;;;;;;;;;4965904;28;20240;-74
2022/01/31 08:56:15;;;;;;;1.13;0.73;;;;;;;;;;4964663;28;20697;-75
2022/01/31 08:58:46;;;;;;;2.17;1.07;;;;;;;;;;4964783;28;20288;-75
2022/01/31 09:01:17;;;;;;;2.80;0.80;;;;;;;;;;4965875;28;20210;-75
2022/01/31 09:04:00;;;;;;;1.83;0.80;;;;;;;;;;4961095;28;20396;-75
2022/01/31 09:06:28;;;;;;;2.30;1.03;;;;;;;;;;4966193;28;20212;-75
2022/01/31 09:08:57;;;;;;;1.37;0.80;;;;;;;;;;4964282;28;20229;-75
2022/01/31 09:11:25;;;;;;;1.73;0.90;;;;;;;;;;4959122;28;20272;-75
2022/01/31 09:13:52;;;;;;;1.93;0.90;;;;;;;;;;4961986;28;20234;-75
2022/01/31 09:16:19;;;;;;;1.53;0.80;;;;;;;;;;4963384;28;20202;-75
2022/01/31 09:18:46;;;;;;;3.43;0.90;;;;;;;;;;4962542;28;20237;-75
2022/01/31 09:21:14;;;;;;;1.30;0.87;;;;;;;;;;4967297;28;20245;-75
2022/01/31 09:23:41;;;;;;;1.30;0.87;;;;;;;;;;4958990;28;20226;-75
2022/01/31 09:26:10;;;;;;;3.63;0.97;;;;;;;;;;4964777;28;20226;-75
2022/01/31 09:28:37;;;;;;;2.93;1.00;;;;;;;;;;4962779;28;20232;-74
2022/01/31 09:31:04;;;;;;;2.40;1.27;;;;;;;;;;4962054;28;20202;-75
2022/01/31 09:33:32;;;;;;;2.07;1.20;;;;;;;;;;4965463;28;20228;-76
2022/01/31 09:35:59;;;;;;;3.80;1.47;;;;;;;;;;4961682;28;20210;-74
2022/01/31 09:38:26;;;;;;;4.17;1.20;;;;;;;;;;4965952;28;20673;-76
2022/01/31 09:40:54;;;;;;;3.00;1.37;;;;;;;;;;4965156;28;20305;-75
2022/01/31 09:46:29;;;;;;;4.10;1.87;;;;;;;;;;4963184;28;20205;-76
2022/01/31 09:48:56;;;;;;;3.30;1.57;;;;;;;;;;4960159;28;20245;-75
2022/01/31 09:51:24;;;;;;;4.13;1.80;;;;;;;;;;4962378;28;20666;-76
2022/01/31 09:53:53;;;;;;;3.17;2.00;;;;;;;;;;4960714;28;20236;-77
2022/01/31 09:56:22;;;;;;;3.10;1.37;;;;;;;;;;4965284;28;20289;-77
2022/01/31 09:58:51;;;;;;;2.53;1.27;;;;;;;;;;4958303;28;20732;-79
2022/01/31 10:01:20;;;;;;;3.37;1.93;;;;;;;;;;4963732;28;20556;-76
2022/01/31 10:03:48;;;;;;;2.30;1.07;;;;;;;;;;4964270;28;20305;-77
2022/01/31 10:06:22;;;;;;;3.90;1.13;;;;;;;;;;4965496;28;20214;-78
2022/01/31 10:08:50;;;;;;;3.13;1.20;;;;;;;;;;4966758;28;20288;-78
2022/01/31 10:11:28;;;;;;;1.77;0.97;;;;;;;;;;4969914;28;20220;-78
2022/01/31 10:16:54;;;;;;;1.33;0.80;;;;;;;;;;4965658;28;20292;-78
2022/01/31 10:19:21;;;;;;;1.90;0.80;;;;;;;;;;4968993;28;20284;-78
2022/01/31 10:21:56;;;;;;;1.97;0.80;;;;;;;;;;4964300;28;20249;-78
2022/01/31 10:24:24;;;;;;;2.13;0.80;;;;;;;;;;4962923;28;20229;-78
2022/01/31 10:26:51;;;;;;;3.30;1.13;;;;;;;;;;4968074;28;20261;-76
2022/01/31 10:29:21;;;;;;;1.17;0.70;;;;;;;;;;4964368;28;20352;-77
2022/01/31 10:32:01;;;;;;;2.03;0.87;;;;;;;;;;4958405;28;20735;-77
2022/01/31 10:34:29;;;;;;;0.80;0.50;;;;;;;;;;4961123;28;20234;-76
2022/01/31 10:36:56;;;;;;;3.03;0.80;;;;;;;;;;4959388;28;20218;-76
2022/01/31 10:45:32;;;;;;;1.90;0.90;;;;;;;;;;4960542;28;20623;-77
2022/01/31 10:51:24;;;;;;;3.10;0.70;;;;;;;;;;4960404;28;20361;-78
2022/01/31 10:53:56;;;;;;;0.90;0.50;;;;;;;;;;4964279;28;20218;-77
2022/01/31 10:56:23;;;;;;;1.10;0.70;;;;;;;;;;4966023;28;20323;-78
2022/01/31 10:58:55;;;;;;;1.30;0.73;;;;;;;;;;4964921;28;20264;-77
2022/01/31 11:01:23;;;;;;;0.87;0.70;;;;;;;;;;4965923;28;20210;-77
2022/01/31 11:03:51;;;;;;;1.47;0.90;;;;;;;;;;4958053;28;20222;-76
2022/01/31 11:06:19;;;;;;;1.47;0.90;;;;;;;;;;4964771;28;20293;-77
2022/01/31 11:08:46;;;;;;;1.33;1.00;;;;;;;;;;4963651;28;20225;-78
2022/01/31 11:11:14;;;;;;;2.67;0.90;;;;;;;;;;4962073;28;20237;-77
2022/01/31 11:13:41;;;;;;;2.03;0.90;;;;;;;;;;4967105;28;20241;-76
2022/01/31 11:16:08;;;;;;;3.60;0.90;;;;;;;;;;4962668;28;20209;-78
2022/01/31 11:18:37;;;;;;;1.57;0.80;;;;;;;;;;4960792;28;20297;-77
2022/01/31 11:21:06;;;;;;;1.20;0.73;;;;;;;;;;4961605;28;20237;-77
2022/01/31 11:23:37;;;;;;;1.67;0.83;;;;;;;;;;4962049;28;20317;-77
2022/01/31 11:26:06;;;;;;;1.47;0.73;;;;;;;;;;4960786;28;20214;-77
2022/01/31 11:28:35;;;;;;;3.50;0.80;;;;;;;;;;4963491;28;20673;-77
2022/01/31 11:31:02;;;;;;;0.87;0.70;;;;;;;;;;4961448;28;20233;-78
2022/01/31 11:33:30;;;;;;;1.67;0.70;;;;;;;;;;4963190;28;20723;-78
2022/01/31 11:35:58;;;;;;;0.73;0.50;;;;;;;;;;4962932;28;20235;-76
2022/01/31 11:38:26;;;;;;;0.93;0.60;;;;;;;;;;4962017;28;20293;-77
2022/01/31 11:40:53;;;;;;;2.60;0.70;;;;;;;;;;4962165;28;20205;-77
2022/01/31 11:43:22;;;;;;;1.53;0.80;;;;;;;;;;4959785;28;20254;-77
2022/01/31 11:45:53;;;;;;;2.37;0.60;;;;;;;;;;4964040;28;20699;-77
2022/01/31 11:48:21;;;;;;;1.43;0.97;;;;;;;;;;4963067;28;20312;-77
2022/01/31 11:50:49;;;;;;;2.43;0.63;;;;;;;;;;4959158;28;20230;-78
2022/01/31 11:53:27;;;;;;;0.47;0.40;;;;;;;;;;4962384;28;20305;-77
2022/01/31 11:55:54;;;;;;;0.93;0.57;;;;;;;;;;4962833;28;20652;-78
2022/01/31 11:58:21;;;;;;;1.87;1.00;;;;;;;;;;4962189;28;20207;-77
2022/01/31 12:00:49;;;;;;;1.30;0.60;;;;;;;;;;4965628;28;20289;-77
2022/01/31 12:03:16;;;;;;;3.23;0.90;;;;;;;;;;4960912;28;20317;-77
2022/01/31 12:05:44;;;;;;;2.03;0.70;;;;;;;;;;4961186;28;20210;-77
2022/01/31 12:08:15;;;;;;;3.53;0.87;;;;;;;;;;4964137;28;20208;-78
2022/01/31 12:10:46;;;;;;;1.30;0.70;;;;;;;;;;4965505;28;20273;-77
2022/01/31 12:13:35;;;;;;;1.13;0.80;;;;;;;;;;4965617;28;20230;-78
2022/01/31 12:16:12;;;;;;;1.23;0.63;;;;;;;;;;4966879;28;20218;-78
2022/01/31 12:18:58;;;;;;;1.10;0.70;;;;;;;;;;4967105;28;20292;-77
2022/01/31 12:24:35;;;;;;;1.17;0.70;;;;;;;;;;4944458;28;20245;-77
2022/01/31 12:27:10;;;;;;;1.80;0.80;;;;;;;;;;4963223;28;20676;-78
2022/01/31 12:29:39;;;;;;;1.30;0.77;;;;;;;;;;4964603;28;20228;-77
2022/01/31 12:32:19;;;;;;;5.20;1.00;;;;;;;;;;4963051;28;20214;-77
2022/01/31 12:34:51;;;;;;;2.97;0.90;;;;;;;;;;4967942;28;20227;-77
2022/01/31 12:37:22;;;;;;;1.40;0.70;;;;;;;;;;4964949;28;20725;-77
2022/01/31 12:40:04;;;;;;;2.03;0.70;;;;;;;;;;4964101;28;20214;-77
2022/01/31 12:42:51;;;;;;;3.00;1.00;;;;;;;;;;4965942;28;20240;-77
2022/01/31 12:45:19;;;;;;;2.37;0.80;;;;;;;;;;4968290;28;20247;-78
2022/01/31 12:48:05;;;;;;;0.77;0.53;;;;;;;;;;4969087;28;20297;-78
2022/01/31 12:50:32;;;;;;;1.27;0.70;;;;;;;;;;4967409;28;20304;-77
2022/01/31 12:53:04;;;;;;;2.97;0.93;;;;;;;;;;4961168;28;20301;-75
2022/01/31 12:55:31;;;;;;;0.80;0.70;;;;;;;;;;4965298;28;20268;-75
2022/01/31 12:58:00;;;;;;;2.13;1.07;;;;;;;;;;4963825;28;20242;-76
2022/01/31 13:00:40;;;;;;;1.47;1.10;;;;;;;;;;4962277;28;20589;-76
2022/01/31 13:03:08;;;;;;;2.30;1.03;;;;;;;;;;4962986;28;20316;-76
2022/01/31 13:05:35;;;;;;;1.30;0.83;;;;;;;;;;4960972;28;20280;-77
2022/01/31 13:08:03;;;;;;;3.57;1.00;;;;;;;;;;4962913;28;20205;-76
2022/01/31 13:10:37;;;;;;;4.10;0.90;;;;;;;;;;4965312;28;20221;-77
2022/01/31 13:13:06;;;;;;;2.20;0.83;;;;;;;;;;4964196;28;20253;-77
2022/01/31 13:15:33;;;;;;;1.33;0.80;;;;;;;;;;4959512;28;20206;-77
2022/01/31 13:18:04;;;;;;;2.97;0.90;;;;;;;;;;4965769;28;20691;-76
2022/01/31 13:20:31;;;;;;;1.83;1.10;;;;;;;;;;4959916;28;20198;-77
2022/01/31 13:22:58;;;;;;;3.40;1.30;;;;;;;;;;4958593;28;20249;-76
2022/01/31 13:25:25;;;;;;;1.33;0.77;;;;;;;;;;4965177;28;20319;-76
2022/01/31 13:27:53;;;;;;;21.37;10.57;;;;;;;;;;4963333;28;20218;-77
2022/01/31 13:30:22;;;;;;;1.77;1.10;;;;;;;;;;4961360;28;20232;-76
2022/01/31 13:32:49;;;;;;;4.97;2.67;;;;;;;;;;4961421;28;20207;-77
2022/01/31 13:35:17;;;;;;;3.50;1.40;;;;;;;;;;4957976;28;20216;-76
2022/01/31 13:37:53;;;;;;;1.67;0.90;;;;;;;;;;4961700;28;21108;-77
2022/01/31 13:40:25;;;;;;;3.53;1.70;;;;;;;;;;4965104;28;20248;-77
2022/01/31 13:43:00;;;;;;;4.17;0.70;;;;;;;;;;4963810;28;20788;-77
2022/01/31 13:45:33;;;;;;;1.03;0.70;;;;;;;;;;4967963;28;20207;-78
2022/01/31 13:48:03;;;;;;;2.40;0.90;;;;;;;;;;4967313;28;20587;-78
2022/01/31 13:50:34;;;;;;;2.03;1.40;;;;;;;;;;4964363;28;20229;-78
2022/01/31 13:53:03;;;;;;;3.93;1.60;;;;;;;;;;4967553;28;20237;-78
2022/01/31 13:55:31;;;;;;;2.93;1.50;;;;;;;;;;4963124;28;20226;-77
2022/01/31 13:57:59;;;;;;;4.63;2.33;;;;;;;;;;4961366;28;20206;-78
2022/01/31 14:00:26;;;;;;;1.73;1.10;;;;;;;;;;4961040;28;20215;-77
2022/01/31 14:03:10;;;;;;;3.73;1.20;;;;;;;;;;4959377;28;20213;-77
2022/01/31 14:05:41;;;;;;;2.77;1.27;;;;;;;;;;4959263;28;20206;-76
2022/01/31 14:08:09;;;;;;;4.03;1.77;;;;;;;;;;4964320;28;20212;-77
2022/01/31 14:10:37;;;;;;;5.20;1.40;;;;;;;;;;4962100;28;20222;-77
2022/01/31 14:13:05;;;;;;;3.73;1.40;;;;;;;;;;4962715;28;20206;-77
2022/01/31 14:15:39;;;;;;;3.70;1.47;;;;;;;;;;4965044;28;20300;-76
2022/01/31 14:18:10;;;;;;;4.97;2.17;;;;;;;;;;4961822;28;20616;-76
2022/01/31 14:20:38;;;;;;;4.83;2.27;;;;;;;;;;4963640;28;20218;-76
2022/01/31 14:23:06;;;;;;;7.10;1.50;;;;;;;;;;4962657;28;20208;-76
2022/01/31 14:25:37;;;;;;;5.63;1.63;;;;;;;;;;4962833;28;20735;-76
2022/01/31 14:28:05;;;;;;;4.03;1.60;;;;;;;;;;4962373;28;20212;-76
2022/01/31 14:30:33;;;;;;;5.63;2.13;;;;;;;;;;4960654;28;20255;-76
2022/01/31 14:33:00;;;;;;;8.60;2.83;;;;;;;;;;4963405;28;20665;-77
2022/01/31 14:35:29;;;;;;;4.07;1.77;;;;;;;;;;4962355;28;20296;-77
2022/01/31 14:37:59;;;;;;;5.27;1.37;;;;;;;;;;4958668;28;20677;-76
2022/01/31 14:40:50;;;;;;;3.90;1.10;;;;;;;;;;4965806;28;20261;-77
2022/01/31 14:49:09;;;;;;;3.00;1.17;;;;;;;;;;4966264;28;20197;-75
2022/01/31 14:51:39;;;;;;;5.67;2.10;;;;;;;;;;4961163;28;20321;-76
2022/01/31 14:54:07;;;;;;;2.43;1.00;;;;;;;;;;4962901;28;20229;-77
2022/01/31 14:56:35;;;;;;;3.17;1.63;;;;;;;;;;4957826;28;20208;-76
2022/01/31 14:59:02;;;;;;;2.70;1.40;;;;;;;;;;4959088;28;20238;-76
2022/01/31 15:01:30;;;;;;;3.57;1.20;;;;;;;;;;4962609;28;20723;-76
2022/01/31 15:03:57;;;;;;;3.63;1.53;;;;;;;;;;4962920;28;20234;-77
2022/01/31 15:06:24;;;;;;;5.10;2.30;;;;;;;;;;4960596;28;20284;-76
2022/01/31 15:08:53;;;;;;;3.97;1.00;;;;;;;;;;4962058;28;20696;-76
2022/01/31 15:11:20;;;;;;;4.43;1.67;;;;;;;;;;4958099;28;20296;-76
2022/01/31 15:13:48;;;;;;;1.40;0.90;;;;;;;;;;4962205;28;20225;-76